Time;durP1;ratioP1;P1;durP2;ratioP2;P2;SDS_P1;SDS_P2;PMS_P1;PMS_P2;Temp;Humidity;BMP_temperature;BMP_pressure;BME280_temperature;BME280_humidity;BME280_pressure;Samples;Min_cycle;Max_cycle;Signal;HPM_P1;HPM_P2
2022/10/16 00:01:10;;;;;;;;;;;12.60;99.90;;;;;;4974744;28;1013;-63
2022/10/16 00:03:36;;;;;;;;;;;12.60;99.90;;;;;;4964073;28;1968;-63
2022/10/16 00:06:02;;;;;;;;;;;12.60;99.90;;;;;;4955994;29;947;-63
2022/10/16 00:08:28;;;;;;;;;;;12.60;99.90;;;;;;4964976;28;1992;-63
2022/10/16 00:11:02;;;;;;;;;;;12.60;99.90;;;;;;4959771;28;1580;-63
2022/10/16 00:13:28;;;;;;;;;;;12.60;99.90;;;;;;4955886;28;1084;-63
2022/10/16 00:15:55;;;;;;;;;;;12.60;99.90;;;;;;4955540;28;1169;-63
2022/10/16 00:18:21;;;;;;;;;;;12.60;99.90;;;;;;4975688;28;901;-63
2022/10/16 00:20:46;;;;;;;;;;;12.60;99.90;;;;;;4975148;28;1013;-63
2022/10/16 00:23:12;;;;;;;;;;;12.60;99.90;;;;;;4974781;28;2410;-63
2022/10/16 00:25:38;;;;;;;;;;;12.60;99.90;;;;;;4975187;28;1185;-63
2022/10/16 00:28:04;;;;;;;;;;;12.60;99.90;;;;;;4974059;28;1213;-63
2022/10/16 00:30:29;;;;;;;;;;;12.60;99.90;;;;;;4975521;28;1048;-63
2022/10/16 00:32:55;;;;;;;;;;;12.50;99.90;;;;;;4975549;28;992;-63
2022/10/16 00:35:21;;;;;;;;;;;12.50;99.90;;;;;;4973783;28;1218;-63
2022/10/16 00:37:47;;;;;;;;;;;12.50;99.90;;;;;;4975363;28;1071;-63
2022/10/16 00:40:12;;;;;;;;;;;12.50;99.90;;;;;;4975120;28;1001;-63
2022/10/16 00:42:38;;;;;;;;;;;12.50;99.90;;;;;;4973547;28;1160;-63
2022/10/16 00:45:04;;;;;;;;;;;12.50;99.90;;;;;;4975387;28;1907;-63
2022/10/16 00:47:34;;;;;;;;;;;12.50;99.90;;;;;;4974074;28;1044;-63
2022/10/16 00:50:05;;;;;;;;;;;12.50;99.90;;;;;;4971470;28;1724;-63
2022/10/16 00:52:31;;;;;;;;;;;12.50;99.90;;;;;;4973705;28;1438;-63
2022/10/16 00:54:57;;;;;;;;;;;12.50;99.90;;;;;;4974639;28;1221;-63
2022/10/16 00:57:23;;;;;;;;;;;12.50;99.90;;;;;;4973662;28;937;-63
2022/10/16 00:59:49;;;;;;;;;;;12.50;99.90;;;;;;4974725;28;826;-63
2022/10/16 01:02:15;;;;;;;;;;;12.40;99.90;;;;;;4974315;28;1291;-63
2022/10/16 01:04:46;;;;;;;;;;;12.50;99.90;;;;;;4973843;28;1910;-63
2022/10/16 01:07:30;;;;;;;;;;;12.40;99.90;;;;;;4967516;28;1457;-63
2022/10/16 01:10:09;;;;;;;;;;;12.50;99.90;;;;;;4963231;28;1271;-63
2022/10/16 01:12:44;;;;;;;;;;;12.40;99.90;;;;;;4973777;28;1001;-63
2022/10/16 01:15:28;;;;;;;;;;;12.40;99.90;;;;;;4974703;28;1115;-63
2022/10/16 01:18:08;;;;;;;;;;;12.40;99.90;;;;;;4973360;28;1215;-63
2022/10/16 01:20:37;;;;;;;;;;;12.50;99.90;;;;;;4972692;28;890;-63
2022/10/16 01:23:14;;;;;;;;;;;12.50;99.90;;;;;;4974540;28;1906;-63
2022/10/16 01:25:52;;;;;;;;;;;12.50;99.90;;;;;;4973731;28;1005;-63
2022/10/16 01:28:19;;;;;;;;;;;12.60;99.90;;;;;;4973143;28;1216;-63
2022/10/16 01:30:45;;;;;;;;;;;12.60;99.90;;;;;;4974116;28;1116;-63
2022/10/16 01:33:20;;;;;;;;;;;12.60;99.90;;;;;;4973617;28;802;-63
2022/10/16 01:35:51;;;;;;;;;;;12.60;99.90;;;;;;4973248;28;1172;-63
2022/10/16 01:38:20;;;;;;;;;;;12.60;99.90;;;;;;4974150;28;978;-63
2022/10/16 01:40:48;;;;;;;;;;;12.60;99.90;;;;;;4972958;28;814;-63
2022/10/16 01:43:17;;;;;;;;;;;12.70;99.90;;;;;;4973500;28;1906;-63
2022/10/16 01:45:44;;;;;;;;;;;12.70;99.90;;;;;;4973082;28;1234;-63
2022/10/16 01:48:11;;;;;;;;;;;12.70;99.90;;;;;;4974355;28;1009;-63
2022/10/16 01:50:39;;;;;;;;;;;12.70;99.90;;;;;;4972284;28;2040;-63
2022/10/16 01:53:06;;;;;;;;;;;12.70;99.90;;;;;;4973247;28;1454;-63
2022/10/16 01:55:33;;;;;;;;;;;12.80;99.90;;;;;;4973383;28;1188;-63
2022/10/16 01:58:01;;;;;;;;;;;12.80;99.90;;;;;;4972631;28;1040;-63
2022/10/16 02:00:26;;;;;;;;;;;12.90;99.90;;;;;;4973478;28;1029;-63
2022/10/16 02:02:53;;;;;;;;;;;12.90;99.90;;;;;;4967621;28;1196;-63
2022/10/16 02:05:19;;;;;;;;;;;12.90;99.90;;;;;;4954421;28;1064;-63
2022/10/16 02:07:45;;;;;;;;;;;12.90;99.90;;;;;;4954060;29;1116;-63
2022/10/16 02:10:11;;;;;;;;;;;12.90;99.90;;;;;;4964074;28;1624;-63
2022/10/16 02:12:39;;;;;;;;;;;12.90;99.90;;;;;;4973226;28;1132;-63
2022/10/16 02:15:05;;;;;;;;;;;12.90;99.90;;;;;;4973319;28;1040;-63
2022/10/16 02:17:31;;;;;;;;;;;12.90;99.90;;;;;;4973787;28;1009;-63
2022/10/16 02:19:57;;;;;;;;;;;12.90;99.90;;;;;;4973096;28;1152;-63
2022/10/16 02:22:31;;;;;;;;;;;13.00;99.90;;;;;;4973033;28;953;-63
2022/10/16 02:25:04;;;;;;;;;;;12.90;99.90;;;;;;4973898;28;1918;-63
2022/10/16 02:27:31;;;;;;;;;;;12.90;99.90;;;;;;4973266;28;1025;-62
2022/10/16 02:30:13;;;;;;;;;;;12.90;99.90;;;;;;4973256;28;1180;-63
2022/10/16 02:32:41;;;;;;;;;;;12.80;99.90;;;;;;4976453;28;945;-63
2022/10/16 02:35:08;;;;;;;;;;;12.90;99.90;;;;;;4975884;28;1157;-63
2022/10/16 02:37:34;;;;;;;;;;;12.80;99.90;;;;;;4977417;28;1198;-63
2022/10/16 02:40:00;;;;;;;;;;;12.80;99.90;;;;;;4977432;28;1075;-64
2022/10/16 02:42:33;;;;;;;;;;;12.80;99.90;;;;;;4976008;28;1277;-63
2022/10/16 02:44:59;;;;;;;;;;;12.80;99.90;;;;;;4977185;28;1914;-63
2022/10/16 02:47:25;;;;;;;;;;;12.80;99.90;;;;;;4976870;28;1156;-63
2022/10/16 02:49:50;;;;;;;;;;;12.80;99.90;;;;;;4975697;28;787;-63
2022/10/16 02:52:16;;;;;;;;;;;12.80;99.90;;;;;;4977525;28;1040;-63
2022/10/16 02:54:42;;;;;;;;;;;12.80;99.90;;;;;;4976139;28;1434;-63
2022/10/16 02:57:07;;;;;;;;;;;12.80;99.90;;;;;;4975659;28;1152;-63
2022/10/16 02:59:33;;;;;;;;;;;12.80;99.90;;;;;;4977077;28;1033;-63
2022/10/16 03:01:59;;;;;;;;;;;12.80;99.90;;;;;;4975784;28;1017;-63
2022/10/16 03:04:25;;;;;;;;;;;12.80;99.90;;;;;;4974947;28;1985;-63
2022/10/16 03:06:50;;;;;;;;;;;12.80;99.90;;;;;;4976969;28;954;-63
2022/10/16 03:09:16;;;;;;;;;;;12.80;99.90;;;;;;4976823;28;1370;-63
2022/10/16 03:11:42;;;;;;;;;;;12.80;99.90;;;;;;4990588;28;1002;-63
2022/10/16 03:14:07;;;;;;;;;;;12.80;99.90;;;;;;4976334;28;1215;-63
2022/10/16 03:16:33;;;;;;;;;;;12.80;99.90;;;;;;4976490;28;885;-63
2022/10/16 03:18:59;;;;;;;;;;;12.80;99.90;;;;;;4974042;28;1050;-63
2022/10/16 03:21:24;;;;;;;;;;;12.80;99.90;;;;;;4976551;28;862;-63
2022/10/16 03:23:50;;;;;;;;;;;12.80;99.90;;;;;;4974260;28;1915;-63
2022/10/16 03:26:16;;;;;;;;;;;12.80;99.90;;;;;;4975902;28;1001;-63
2022/10/16 03:28:41;;;;;;;;;;;12.80;99.90;;;;;;4973335;28;1301;-63
2022/10/16 03:31:08;;;;;;;;;;;12.80;99.90;;;;;;4964371;28;1249;-63
2022/10/16 03:33:33;;;;;;;;;;;12.80;99.90;;;;;;4965159;28;1270;-63
2022/10/16 03:36:00;;;;;;;;;;;12.80;99.90;;;;;;4966100;28;1242;-63
2022/10/16 03:38:25;;;;;;;;;;;12.90;99.90;;;;;;4966589;28;1206;-63
2022/10/16 03:40:51;;;;;;;;;;;12.80;99.90;;;;;;4964064;28;1348;-63
2022/10/16 03:43:16;;;;;;;;;;;12.90;99.90;;;;;;4963732;28;1911;-63
2022/10/16 03:45:42;;;;;;;;;;;12.90;99.90;;;;;;4966522;28;1241;-63
2022/10/16 03:48:08;;;;;;;;;;;12.80;99.90;;;;;;4966569;28;1273;-63
2022/10/16 03:50:33;;;;;;;;;;;12.90;99.90;;;;;;4964956;28;1223;-63
2022/10/16 03:52:59;;;;;;;;;;;12.80;99.90;;;;;;4966296;28;1318;-63
2022/10/16 03:55:25;;;;;;;;;;;12.80;99.90;;;;;;4966340;28;1249;-63
2022/10/16 03:57:50;;;;;;;;;;;12.80;99.90;;;;;;4962860;28;1332;-63
2022/10/16 04:00:16;;;;;;;;;;;12.80;99.90;;;;;;4967886;28;1215;-63
2022/10/16 04:02:42;;;;;;;;;;;12.80;99.90;;;;;;4965826;28;1271;-63
2022/10/16 04:05:08;;;;;;;;;;;12.80;99.90;;;;;;4966792;28;1910;-63
2022/10/16 04:07:34;;;;;;;;;;;12.80;99.90;;;;;;4963479;28;1241;-63
2022/10/16 04:09:59;;;;;;;;;;;12.70;99.90;;;;;;4965386;28;1334;-63
2022/10/16 04:12:25;;;;;;;;;;;12.70;99.90;;;;;;4964827;28;1221;-63
2022/10/16 04:14:51;;;;;;;;;;;12.70;99.90;;;;;;4966447;28;1332;-63
2022/10/16 04:17:17;;;;;;;;;;;12.60;99.90;;;;;;4963497;28;1249;-63
2022/10/16 04:19:42;;;;;;;;;;;12.60;99.90;;;;;;4966013;28;1356;-63
2022/10/16 04:22:08;;;;;;;;;;;12.60;99.90;;;;;;4963643;28;1264;-63
2022/10/16 04:24:34;;;;;;;;;;;12.60;99.90;;;;;;4963567;28;1903;-63
2022/10/16 04:26:59;;;;;;;;;;;12.60;99.90;;;;;;4965278;28;1305;-63
2022/10/16 04:29:25;;;;;;;;;;;12.50;99.90;;;;;;4965533;28;1225;-63
2022/10/16 04:31:51;;;;;;;;;;;12.50;99.90;;;;;;4963856;28;1265;-63
2022/10/16 04:34:16;;;;;;;;;;;12.50;99.90;;;;;;4962723;28;1416;-63
2022/10/16 04:36:42;;;;;;;;;;;12.50;99.90;;;;;;4966063;28;1205;-63
2022/10/16 04:39:08;;;;;;;;;;;12.50;99.90;;;;;;4966110;28;1217;-63
2022/10/16 04:41:33;;;;;;;;;;;12.50;99.90;;;;;;4965629;28;1292;-63
2022/10/16 04:43:59;;;;;;;;;;;12.50;99.90;;;;;;4975177;28;1914;-63
2022/10/16 04:46:24;;;;;;;;;;;12.50;99.90;;;;;;4975003;28;1009;-63
2022/10/16 04:48:50;;;;;;;;;;;12.60;99.90;;;;;;4973967;28;1168;-63
2022/10/16 04:51:16;;;;;;;;;;;12.50;99.90;;;;;;4974696;28;1215;-63
2022/10/16 04:53:41;;;;;;;;;;;12.50;99.90;;;;;;4965945;28;1469;-63
2022/10/16 04:56:07;;;;;;;;;;;12.50;99.90;;;;;;4954448;29;1024;-63
2022/10/16 04:58:33;;;;;;;;;;;12.50;99.90;;;;;;4955611;29;977;-63
2022/10/16 05:00:58;;;;;;;;;;;12.50;99.90;;;;;;4971523;28;1196;-63
2022/10/16 05:03:24;;;;;;;;;;;12.50;99.90;;;;;;4969823;28;1914;-63
2022/10/16 05:05:50;;;;;;;;;;;12.50;99.90;;;;;;4974796;28;846;-63
2022/10/16 05:08:16;;;;;;;;;;;12.50;99.90;;;;;;4971316;28;1308;-63
2022/10/16 05:10:42;;;;;;;;;;;12.50;99.90;;;;;;4964548;28;1287;-63
2022/10/16 05:13:08;;;;;;;;;;;12.50;99.90;;;;;;4963860;28;1261;-63
2022/10/16 05:15:34;;;;;;;;;;;12.50;99.90;;;;;;4965328;28;1170;-63
2022/10/16 05:17:59;;;;;;;;;;;12.60;99.90;;;;;;4961532;28;1250;-63
2022/10/16 05:20:25;;;;;;;;;;;12.60;99.90;;;;;;4965431;28;1201;-63
2022/10/16 05:22:50;;;;;;;;;;;12.60;99.90;;;;;;4965529;28;1301;-63
2022/10/16 05:25:16;;;;;;;;;;;12.60;99.90;;;;;;4963931;28;1972;-63
2022/10/16 05:27:42;;;;;;;;;;;12.30;99.90;;;;;;4962142;28;1157;-63
2022/10/16 05:30:07;;;;;;;;;;;11.90;99.90;;;;;;4963517;28;1217;-63
2022/10/16 05:32:33;;;;;;;;;;;11.90;99.90;;;;;;4964625;28;1360;-64
2022/10/16 05:34:59;;;;;;;;;;;12.00;99.90;;;;;;4963516;28;1277;-63
2022/10/16 05:37:26;;;;;;;;;;;12.10;99.90;;;;;;4965169;28;1462;-63
2022/10/16 05:39:52;;;;;;;;;;;12.10;99.90;;;;;;4964831;28;1265;-63
2022/10/16 05:42:18;;;;;;;;;;;12.10;99.90;;;;;;4964712;28;1320;-63
2022/10/16 05:44:44;;;;;;;;;;;12.10;99.90;;;;;;4965892;28;1910;-63
2022/10/16 05:47:10;;;;;;;;;;;12.20;99.90;;;;;;4961612;28;1284;-63
2022/10/16 05:49:36;;;;;;;;;;;12.10;99.90;;;;;;4965597;28;1245;-63
2022/10/16 05:52:02;;;;;;;;;;;12.10;99.90;;;;;;4964334;28;1311;-63
2022/10/16 05:54:27;;;;;;;;;;;12.10;99.90;;;;;;4967732;28;1318;-63
2022/10/16 05:56:53;;;;;;;;;;;12.10;99.90;;;;;;4962845;28;1214;-63
2022/10/16 05:59:18;;;;;;;;;;;12.10;99.90;;;;;;4963533;28;1250;-63
2022/10/16 06:01:44;;;;;;;;;;;12.10;99.90;;;;;;4961262;28;1246;-63
2022/10/16 06:04:10;;;;;;;;;;;12.10;99.90;;;;;;4961884;28;1914;-63
2022/10/16 06:06:36;;;;;;;;;;;12.10;99.90;;;;;;4965079;28;1269;-63
2022/10/16 06:09:02;;;;;;;;;;;12.10;99.90;;;;;;4968156;28;1318;-64
2022/10/16 06:11:29;;;;;;;;;;;12.10;99.90;;;;;;4966525;28;1221;-63
2022/10/16 06:13:56;;;;;;;;;;;12.20;99.90;;;;;;4965999;28;1300;-63
2022/10/16 06:16:22;;;;;;;;;;;12.20;99.90;;;;;;4967756;28;1284;-64
2022/10/16 06:18:50;;;;;;;;;;;12.30;99.90;;;;;;4968600;28;1277;-63
2022/10/16 06:21:17;;;;;;;;;;;12.20;99.90;;;;;;4965712;28;1217;-63
2022/10/16 06:23:43;;;;;;;;;;;12.30;99.90;;;;;;4967352;28;1922;-63
2022/10/16 06:26:10;;;;;;;;;;;12.30;99.90;;;;;;4968624;28;1170;-63
2022/10/16 06:28:36;;;;;;;;;;;12.30;99.90;;;;;;4972976;28;1245;-63
2022/10/16 06:31:03;;;;;;;;;;;12.40;99.90;;;;;;4977244;28;1123;-63
2022/10/16 06:33:28;;;;;;;;;;;12.40;99.90;;;;;;4977456;28;1257;-63
2022/10/16 06:36:00;;;;;;;;;;;12.40;99.90;;;;;;4967402;28;1213;-63
2022/10/16 06:38:25;;;;;;;;;;;12.40;99.90;;;;;;4968980;28;1211;-64
2022/10/16 06:40:53;;;;;;;;;;;12.50;99.90;;;;;;4967568;28;1233;-63
2022/10/16 06:43:18;;;;;;;;;;;12.50;99.90;;;;;;4968895;28;1981;-63
2022/10/16 06:45:49;;;;;;;;;;;12.50;99.90;;;;;;4966349;28;1292;-63
2022/10/16 06:48:15;;;;;;;;;;;12.50;99.90;;;;;;4967522;28;1214;-63
2022/10/16 06:50:41;;;;;;;;;;;12.50;99.90;;;;;;4966518;28;1285;-63
2022/10/16 06:53:06;;;;;;;;;;;12.60;99.90;;;;;;4970069;28;1322;-63
2022/10/16 06:55:32;;;;;;;;;;;12.70;99.90;;;;;;4965025;28;1241;-63
2022/10/16 06:57:58;;;;;;;;;;;12.80;99.90;;;;;;4966703;28;1390;-63
2022/10/16 07:00:23;;;;;;;;;;;12.80;99.90;;;;;;4967415;28;1308;-63
2022/10/16 07:02:49;;;;;;;;;;;13.00;99.90;;;;;;4967698;28;1243;-64
2022/10/16 07:05:15;;;;;;;;;;;13.10;99.90;;;;;;4968753;28;1907;-63
2022/10/16 07:07:42;;;;;;;;;;;13.20;99.90;;;;;;4967514;28;1241;-64
2022/10/16 07:10:08;;;;;;;;;;;13.30;99.90;;;;;;4966683;28;1299;-63
2022/10/16 07:12:33;;;;;;;;;;;13.30;99.90;;;;;;4968171;28;1280;-64
2022/10/16 07:14:59;;;;;;;;;;;13.30;99.90;;;;;;4965152;28;1292;-63
2022/10/16 07:17:24;;;;;;;;;;;13.30;99.90;;;;;;4967290;28;1229;-64
2022/10/16 07:19:52;;;;;;;;;;;13.30;99.90;;;;;;4966274;28;1233;-64
2022/10/16 07:22:18;;;;;;;;;;;13.20;99.90;;;;;;4964835;28;1285;-63
2022/10/16 07:24:44;;;;;;;;;;;13.20;99.90;;;;;;4966759;28;1977;-64
2022/10/16 07:27:10;;;;;;;;;;;13.20;99.90;;;;;;4967385;28;1272;-63
2022/10/16 07:29:35;;;;;;;;;;;13.10;99.90;;;;;;4966678;28;1245;-64
2022/10/16 07:32:01;;;;;;;;;;;13.10;99.90;;;;;;4965101;28;1234;-63
2022/10/16 07:34:27;;;;;;;;;;;13.10;99.90;;;;;;4968253;28;1300;-63
2022/10/16 07:36:53;;;;;;;;;;;13.00;99.90;;;;;;4965183;28;1406;-64
2022/10/16 07:39:18;;;;;;;;;;;12.90;99.90;;;;;;4965526;28;1229;-63
2022/10/16 07:41:44;;;;;;;;;;;12.90;99.90;;;;;;4967227;28;1245;-63
2022/10/16 07:44:10;;;;;;;;;;;12.90;99.90;;;;;;4971396;28;1906;-63
2022/10/16 07:46:36;;;;;;;;;;;12.90;99.90;;;;;;4972919;28;1087;-63
2022/10/16 07:49:02;;;;;;;;;;;12.90;99.90;;;;;;4973851;28;1188;-63
2022/10/16 07:51:28;;;;;;;;;;;12.90;99.90;;;;;;4966247;28;1249;-64
2022/10/16 07:53:54;;;;;;;;;;;12.90;99.90;;;;;;4970763;28;1355;-64
2022/10/16 07:56:20;;;;;;;;;;;13.00;99.90;;;;;;4970211;28;1273;-64
2022/10/16 07:58:46;;;;;;;;;;;13.00;99.90;;;;;;4962906;28;1291;-64
2022/10/16 08:01:13;;;;;;;;;;;13.10;99.90;;;;;;4962594;28;1206;-63
2022/10/16 08:03:41;;;;;;;;;;;13.10;99.90;;;;;;4967686;28;1983;-64
2022/10/16 08:06:07;;;;;;;;;;;13.20;99.90;;;;;;4964344;28;1304;-63
2022/10/16 08:08:32;;;;;;;;;;;13.30;99.90;;;;;;4966581;28;1225;-64
2022/10/16 08:10:58;;;;;;;;;;;13.40;99.90;;;;;;4965332;28;1315;-63
2022/10/16 08:13:26;;;;;;;;;;;13.40;99.90;;;;;;4965884;28;1315;-64
2022/10/16 08:15:53;;;;;;;;;;;13.50;99.90;;;;;;4963835;28;1249;-63
2022/10/16 08:18:19;;;;;;;;;;;13.50;99.90;;;;;;4966737;28;1277;-64
2022/10/16 08:20:44;;;;;;;;;;;13.50;99.90;;;;;;4968899;28;3010;-63
2022/10/16 08:23:11;;;;;;;;;;;13.50;99.90;;;;;;4966599;28;3217;-64
2022/10/16 08:25:38;;;;;;;;;;;13.50;99.90;;;;;;4958205;28;3399;-63
2022/10/16 08:28:05;;;;;;;;;;;13.60;99.90;;;;;;4971401;28;3625;-64
2022/10/16 08:30:31;;;;;;;;;;;13.60;99.90;;;;;;4974281;28;3610;-63
2022/10/16 08:32:57;;;;;;;;;;;13.80;99.90;;;;;;4974597;28;3445;-63
2022/10/16 08:35:23;;;;;;;;;;;13.80;99.90;;;;;;4974412;28;1115;-63
2022/10/16 08:37:49;;;;;;;;;;;13.80;99.90;;;;;;4974299;28;1176;-64
2022/10/16 08:40:17;;;;;;;;;;;13.90;99.90;;;;;;4974716;28;1219;-64
2022/10/16 08:42:52;;;;;;;;;;;14.00;99.90;;;;;;4974971;28;977;-64
2022/10/16 08:45:19;;;;;;;;;;;14.20;99.90;;;;;;4974033;28;2037;-64
2022/10/16 08:47:49;;;;;;;;;;;14.20;99.90;;;;;;4974514;28;1041;-64
2022/10/16 08:50:23;;;;;;;;;;;14.20;99.90;;;;;;4974690;28;1176;-64
2022/10/16 08:52:49;;;;;;;;;;;14.10;99.90;;;;;;4970899;28;1627;-64
2022/10/16 08:55:34;;;;;;;;;;;14.20;99.90;;;;;;4954813;29;1013;-64
2022/10/16 08:58:00;;;;;;;;;;;14.20;99.90;;;;;;4959844;28;1767;-64
2022/10/16 09:00:26;;;;;;;;;;;14.20;99.90;;;;;;4968839;28;1245;-63
2022/10/16 09:02:58;;;;;;;;;;;14.20;99.90;;;;;;4958683;28;1291;-64
2022/10/16 09:05:34;;;;;;;;;;;14.30;99.90;;;;;;4960123;28;1906;-64
2022/10/16 09:08:09;;;;;;;;;;;14.30;99.90;;;;;;4961721;28;1098;-64
2022/10/16 09:10:36;;;;;;;;;;;14.40;99.90;;;;;;4960638;28;1322;-64
2022/10/16 09:13:09;;;;;;;;;;;14.40;99.90;;;;;;4955259;28;938;-64
2022/10/16 09:15:35;;;;;;;;;;;14.50;99.90;;;;;;4956711;28;1216;-64
2022/10/16 09:18:15;;;;;;;;;;;14.50;99.90;;;;;;4974623;28;997;-64
2022/10/16 09:20:49;;;;;;;;;;;14.60;99.90;;;;;;4973786;28;1029;-64
2022/10/16 09:23:17;;;;;;;;;;;14.50;99.90;;;;;;4973768;28;1981;-63
2022/10/16 09:25:45;;;;;;;;;;;14.70;99.90;;;;;;4974173;28;1140;-64
2022/10/16 09:28:11;;;;;;;;;;;14.70;99.90;;;;;;4973942;28;1273;-63
2022/10/16 09:30:37;;;;;;;;;;;14.90;99.90;;;;;;4974055;28;965;-64
2022/10/16 09:33:03;;;;;;;;;;;14.90;99.90;;;;;;4974015;28;1183;-64
2022/10/16 09:35:36;;;;;;;;;;;15.00;99.90;;;;;;4968869;28;1343;-64
2022/10/16 09:38:02;;;;;;;;;;;15.00;99.90;;;;;;4954163;28;1068;-64
2022/10/16 09:40:30;;;;;;;;;;;15.00;99.90;;;;;;4954932;28;815;-64
2022/10/16 09:43:01;;;;;;;;;;;15.10;99.90;;;;;;4960112;28;1245;-64
2022/10/16 09:45:26;;;;;;;;;;;15.10;99.90;;;;;;4961792;28;1918;-63
2022/10/16 09:47:52;;;;;;;;;;;15.20;99.90;;;;;;4963228;28;1233;-64
2022/10/16 09:50:21;;;;;;;;;;;15.30;99.90;;;;;;4963451;28;1245;-64
2022/10/16 09:52:47;;;;;;;;;;;15.50;99.90;;;;;;4967234;28;1299;-64
2022/10/16 09:55:14;;;;;;;;;;;15.50;99.90;;;;;;4954512;29;1104;-64
2022/10/16 09:57:50;;;;;;;;;;;15.60;99.90;;;;;;4965965;28;1185;-64
2022/10/16 10:00:16;;;;;;;;;;;16.00;99.90;;;;;;4973423;28;1203;-64
2022/10/16 10:02:41;;;;;;;;;;;16.70;99.90;;;;;;4969449;28;1580;-64
2022/10/16 10:05:18;;;;;;;;;;;16.40;99.90;;;;;;4952875;29;1893;-63
2022/10/16 10:07:45;;;;;;;;;;;16.50;99.90;;;;;;4964665;28;1268;-64
2022/10/16 10:10:25;;;;;;;;;;;16.90;99.90;;;;;;4964600;28;1275;-65
2022/10/16 10:12:51;;;;;;;;;;;16.50;99.90;;;;;;4953175;29;815;-66
2022/10/16 10:15:21;;;;;;;;;;;16.20;99.90;;;;;;4954746;29;1127;-65
2022/10/16 10:17:48;;;;;;;;;;;16.30;99.90;;;;;;4958771;28;1169;-65
2022/10/16 10:20:28;;;;;;;;;;;16.30;99.90;;;;;;4972532;28;954;-65
2022/10/16 10:22:55;;;;;;;;;;;16.50;99.90;;;;;;4970304;28;1154;-65
2022/10/16 10:25:21;;;;;;;;;;;16.70;99.90;;;;;;4963236;28;1981;-65
2022/10/16 10:27:52;;;;;;;;;;;17.30;99.90;;;;;;4961296;28;1225;-65
2022/10/16 10:30:21;;;;;;;;;;;17.90;99.90;;;;;;4973795;28;1309;-65
2022/10/16 10:32:57;;;;;;;;;;;17.60;99.90;;;;;;4972395;28;1295;-65
2022/10/16 10:35:29;;;;;;;;;;;17.50;99.90;;;;;;4962676;28;1301;-65
2022/10/16 10:37:56;;;;;;;;;;;17.20;99.90;;;;;;4963233;28;1209;-65
2022/10/16 10:40:30;;;;;;;;;;;16.60;99.90;;;;;;4964001;28;1327;-65
2022/10/16 10:43:02;;;;;;;;;;;16.10;99.90;;;;;;4962708;28;2737;-65
2022/10/16 10:45:32;;;;;;;;;;;15.90;99.90;;;;;;4963176;28;1980;-65
2022/10/16 10:48:12;;;;;;;;;;;16.10;99.90;;;;;;4956149;28;1144;-65
2022/10/16 10:50:55;;;;;;;;;;;16.50;99.90;;;;;;4953855;28;905;-65
2022/10/16 10:53:27;;;;;;;;;;;16.80;99.90;;;;;;4965502;28;1628;-64
2022/10/16 10:56:22;;;;;;;;;;;17.10;99.90;;;;;;4976472;28;1017;-65
2022/10/16 10:58:48;;;;;;;;;;;16.80;99.90;;;;;;4970574;28;1078;-65
2022/10/16 11:01:17;;;;;;;;;;;16.60;99.90;;;;;;4961884;28;1246;-65
2022/10/16 11:03:46;;;;;;;;;;;16.60;99.90;;;;;;4965718;28;1968;-65
2022/10/16 11:06:14;;;;;;;;;;;16.70;99.90;;;;;;4967383;28;1233;-65
2022/10/16 11:08:43;;;;;;;;;;;17.40;99.90;;;;;;4959490;28;1218;-65
2022/10/16 11:11:13;;;;;;;;;;;17.60;99.90;;;;;;4973296;28;1660;-65
2022/10/16 11:13:39;;;;;;;;;;;18.50;99.90;;;;;;4976247;28;1237;-65
2022/10/16 11:16:12;;;;;;;;;;;18.60;99.90;;;;;;4976041;28;1000;-65
2022/10/16 11:18:43;;;;;;;;;;;19.00;99.90;;;;;;4970099;28;1054;-65
2022/10/16 11:21:12;;;;;;;;;;;19.00;99.90;;;;;;4966593;28;1293;-65
2022/10/16 11:23:42;;;;;;;;;;;19.00;99.90;;;;;;4965403;28;1906;-65
2022/10/16 11:26:13;;;;;;;;;;;19.20;99.90;;;;;;4966663;28;1202;-65
2022/10/16 11:28:46;;;;;;;;;;;19.20;99.90;;;;;;4967995;28;1198;-65
2022/10/16 11:31:15;;;;;;;;;;;20.20;99.90;;;;;;4956501;29;830;-65
2022/10/16 11:33:45;;;;;;;;;;;20.80;99.90;;;;;;4963051;28;1083;-65
2022/10/16 11:36:15;;;;;;;;;;;20.70;98.30;;;;;;4967189;28;1273;-65
2022/10/16 11:38:45;;;;;;;;;;;20.50;99.10;;;;;;4967502;28;1277;-65
2022/10/16 11:41:12;;;;;;;;;;;20.40;98.50;;;;;;4959459;28;1271;-65
2022/10/16 11:43:40;;;;;;;;;;;19.70;98.60;;;;;;4963798;28;1911;-65
2022/10/16 11:46:12;;;;;;;;;;;19.80;99.90;;;;;;4966990;28;1332;-64
2022/10/16 11:48:42;;;;;;;;;;;19.70;98.30;;;;;;4964213;28;1223;-65
2022/10/16 11:51:19;;;;;;;;;;;19.60;99.70;;;;;;4956291;29;1033;-65
2022/10/16 11:54:03;;;;;;;;;;;19.60;98.90;;;;;;4960021;28;1291;-65
2022/10/16 11:56:30;;;;;;;;;;;19.80;99.50;;;;;;4965490;28;1238;-65
2022/10/16 11:58:59;;;;;;;;;;;19.40;98.70;;;;;;4961072;28;1313;-65
2022/10/16 12:01:32;;;;;;;;;;;19.40;98.70;;;;;;4956798;29;1033;-65
2022/10/16 12:03:58;;;;;;;;;;;19.30;98.80;;;;;;4967454;28;1919;-65
2022/10/16 12:06:24;;;;;;;;;;;19.30;98.30;;;;;;4990261;28;803;-65
2022/10/16 12:08:50;;;;;;;;;;;19.50;99.30;;;;;;4961832;28;1158;-65
2022/10/16 12:11:20;;;;;;;;;;;19.70;97.50;;;;;;4974750;28;1648;-65
2022/10/16 12:13:48;;;;;;;;;;;19.50;97.80;;;;;;4975565;28;1219;-65
2022/10/16 12:16:13;;;;;;;;;;;19.50;97.70;;;;;;4975726;28;866;-65
2022/10/16 12:18:40;;;;;;;;;;;19.30;97.60;;;;;;4990511;28;1176;-65
2022/10/16 12:21:06;;;;;;;;;;;19.50;98.40;;;;;;4995231;28;981;-65
2022/10/16 12:23:33;;;;;;;;;;;19.40;98.10;;;;;;4975614;28;1906;-65
2022/10/16 12:26:00;;;;;;;;;;;19.00;98.70;;;;;;4969348;28;2991;-65
2022/10/16 12:28:27;;;;;;;;;;;19.10;99.70;;;;;;4975040;28;2995;-65
2022/10/16 12:30:54;;;;;;;;;;;19.10;99.50;;;;;;4987056;28;2952;-65
2022/10/16 12:33:23;;;;;;;;;;;19.60;99.10;;;;;;4973870;28;1471;-65
2022/10/16 12:35:49;;;;;;;;;;;20.20;98.90;;;;;;4974587;28;1164;-65
2022/10/16 12:38:16;;;;;;;;;;;20.60;97.70;;;;;;4975076;28;1112;-65
2022/10/16 12:40:43;;;;;;;;;;;20.80;97.80;;;;;;4973302;28;1132;-65
2022/10/16 12:43:22;;;;;;;;;;;19.40;96.90;;;;;;4973593;28;2971;-65
2022/10/16 12:45:58;;;;;;;;;;;18.70;98.60;;;;;;4963659;28;1287;-65
2022/10/16 12:48:24;;;;;;;;;;;17.60;99.90;;;;;;4964844;28;1178;-65
2022/10/16 12:50:49;;;;;;;;;;;17.60;99.90;;;;;;4966660;28;1261;-65
2022/10/16 12:53:24;;;;;;;;;;;18.40;99.90;;;;;;4961520;28;1305;-65
2022/10/16 12:55:56;;;;;;;;;;;19.10;98.20;;;;;;4972219;28;993;-65
2022/10/16 12:58:27;;;;;;;;;;;19.70;96.40;;;;;;4974508;28;1247;-65
2022/10/16 13:00:57;;;;;;;;;;;19.70;96.50;;;;;;4974069;28;882;-65
2022/10/16 13:03:26;;;;;;;;;;;19.50;97.30;;;;;;4966037;28;1911;-65
2022/10/16 13:06:05;;;;;;;;;;;19.60;97.20;;;;;;4974436;28;1191;-66
2022/10/16 13:08:41;;;;;;;;;;;19.60;95.70;;;;;;4973887;28;909;-65
2022/10/16 13:11:08;;;;;;;;;;;20.10;95.70;;;;;;4973715;28;1612;-65
2022/10/16 13:13:51;;;;;;;;;;;19.40;94.80;;;;;;4974549;28;946;-65
2022/10/16 13:16:18;;;;;;;;;;;18.80;97.90;;;;;;4973337;28;1504;-65
2022/10/16 13:18:56;;;;;;;;;;;18.50;99.00;;;;;;4974090;28;1212;-65
2022/10/16 13:21:33;;;;;;;;;;;18.20;97.80;;;;;;4959698;28;1533;-65
2022/10/16 13:23:58;;;;;;;;;;;17.80;99.50;;;;;;4961147;28;1910;-65
2022/10/16 13:26:40;;;;;;;;;;;17.60;99.90;;;;;;4973782;28;1173;-65
2022/10/16 13:29:06;;;;;;;;;;;17.40;99.90;;;;;;4969608;28;1422;-65
2022/10/16 13:31:33;;;;;;;;;;;17.30;99.80;;;;;;4974475;28;848;-65
2022/10/16 13:34:00;;;;;;;;;;;17.40;99.90;;;;;;4973405;28;1199;-65
2022/10/16 13:36:27;;;;;;;;;;;17.40;99.90;;;;;;4973336;28;1336;-65
2022/10/16 13:39:00;;;;;;;;;;;17.70;99.90;;;;;;4973726;28;1184;-65
2022/10/16 13:41:26;;;;;;;;;;;17.80;99.90;;;;;;4973250;28;1187;-65
2022/10/16 13:43:55;;;;;;;;;;;18.00;99.90;;;;;;4973284;28;1968;-65
2022/10/16 13:46:22;;;;;;;;;;;18.00;99.90;;;;;;4966369;28;1207;-65
2022/10/16 13:48:57;;;;;;;;;;;18.10;99.90;;;;;;4954332;29;1088;-65
2022/10/16 13:51:22;;;;;;;;;;;18.00;99.90;;;;;;4967503;28;1145;-65
2022/10/16 13:53:48;;;;;;;;;;;18.10;99.90;;;;;;4967404;28;1572;-65
2022/10/16 13:56:15;;;;;;;;;;;18.60;99.90;;;;;;4984649;28;1129;-65
2022/10/16 13:58:41;;;;;;;;;;;19.40;99.10;;;;;;4972794;28;1118;-65
2022/10/16 14:01:19;;;;;;;;;;;19.90;96.70;;;;;;4973931;28;1036;-65
2022/10/16 14:03:45;;;;;;;;;;;20.20;95.70;;;;;;4972297;28;1907;-65
2022/10/16 14:06:13;;;;;;;;;;;21.00;94.20;;;;;;4973258;28;1192;-65
2022/10/16 14:08:42;;;;;;;;;;;21.50;93.40;;;;;;4973548;28;1144;-65
2022/10/16 14:11:07;;;;;;;;;;;21.70;92.70;;;;;;4972558;28;1620;-65
2022/10/16 14:13:38;;;;;;;;;;;22.00;91.50;;;;;;4973504;28;1172;-65
2022/10/16 14:16:06;;;;;;;;;;;22.10;91.20;;;;;;4973833;28;1050;-65
2022/10/16 14:18:32;;;;;;;;;;;22.50;90.80;;;;;;4971935;28;1152;-65
2022/10/16 14:21:02;;;;;;;;;;;22.80;88.20;;;;;;4973291;28;1597;-65
2022/10/16 14:23:29;;;;;;;;;;;22.90;87.30;;;;;;4973169;28;1907;-65
2022/10/16 14:26:08;;;;;;;;;;;22.80;87.10;;;;;;4971743;28;1357;-65
2022/10/16 14:28:34;;;;;;;;;;;22.80;86.00;;;;;;4977514;28;1663;-66
2022/10/16 14:31:01;;;;;;;;;;;22.60;86.80;;;;;;4977025;28;1124;-66
2022/10/16 14:33:28;;;;;;;;;;;22.70;87.50;;;;;;4975918;28;2049;-65
2022/10/16 14:36:02;;;;;;;;;;;22.30;86.80;;;;;;4976701;28;1180;-65